Time;durP1;ratioP1;P1;durP2;ratioP2;P2;SDS_P1;SDS_P2;PMS_P1;PMS_P2;Temp;Humidity;BMP_temperature;BMP_pressure;BME280_temperature;BME280_humidity;BME280_pressure;Samples;Min_cycle;Max_cycle;Signal;HPM_P1;HPM_P2
2023/03/11 00:00:27;;;;;;;0.30;0.30;;;3.40;99.90;;;;;;4982682;28;20293;-72
2023/03/11 00:02:55;;;;;;;0.57;0.40;;;3.30;99.90;;;;;;4978137;28;20071;-72
2023/03/11 00:05:32;;;;;;;0.43;0.30;;;3.30;99.90;;;;;;4982818;28;20102;-71
2023/03/11 00:07:58;;;;;;;0.35;0.22;;;3.20;99.90;;;;;;4978772;28;20500;-71
2023/03/11 00:10:30;;;;;;;0.32;0.17;;;3.20;99.90;;;;;;4981079;28;20030;-72
2023/03/11 00:12:57;;;;;;;0.22;0.20;;;3.20;99.90;;;;;;4978392;28;20404;-72
2023/03/11 00:15:23;;;;;;;0.40;0.40;;;3.20;99.90;;;;;;4977309;28;20085;-72
2023/03/11 00:17:50;;;;;;;1.88;0.28;;;3.30;99.90;;;;;;4969230;28;20035;-71
2023/03/11 00:20:27;;;;;;;0.90;0.70;;;3.30;99.90;;;;;;4984434;28;20101;-74
2023/03/11 00:22:54;;;;;;;2.08;0.38;;;3.20;99.90;;;;;;4982451;28;20038;-72
2023/03/11 00:25:23;;;;;;;3.28;0.50;;;3.20;99.90;;;;;;4984946;28;20503;-72
2023/03/11 00:27:49;;;;;;;0.10;0.10;;;3.10;99.90;;;;;;4966329;28;20035;-72
2023/03/11 00:30:17;;;;;;;0.55;0.35;;;3.20;99.90;;;;;;4984095;28;20018;-72
2023/03/11 00:32:43;;;;;;;0.40;0.40;;;3.10;99.90;;;;;;4984050;28;20030;-71
2023/03/11 00:35:14;;;;;;;0.30;0.30;;;3.00;99.90;;;;;;4983954;28;20485;-72
2023/03/11 00:37:41;;;;;;;8.43;1.45;;;3.00;99.90;;;;;;4986037;28;20106;-71
2023/03/11 00:40:11;;;;;;;0.45;0.45;;;3.00;99.90;;;;;;4982944;28;20110;-71
2023/03/11 00:42:37;;;;;;;1.85;0.30;;;3.00;99.90;;;;;;4985906;28;20058;-71
2023/03/11 00:45:03;;;;;;;0.20;0.20;;;3.00;99.90;;;;;;4981873;28;20031;-72
2023/03/11 00:47:28;;;;;;;0.85;0.63;;;3.00;99.90;;;;;;4988960;28;20050;-72
2023/03/11 00:49:54;;;;;;;0.22;0.13;;;2.90;99.90;;;;;;4981210;28;20084;-72
2023/03/11 00:52:20;;;;;;;1.38;0.25;;;2.90;99.90;;;;;;4990687;28;20031;-72
2023/03/11 00:54:45;;;;;;;2.50;0.35;;;2.90;99.90;;;;;;4978150;28;20387;-72
2023/03/11 00:57:11;;;;;;;2.92;0.88;;;2.90;99.90;;;;;;4991121;28;20113;-72
2023/03/11 00:59:37;;;;;;;0.22;0.22;;;2.90;99.90;;;;;;4981349;28;20078;-72
2023/03/11 01:02:03;;;;;;;0.35;0.35;;;2.90;99.90;;;;;;4992117;28;20121;-71
2023/03/11 01:04:29;;;;;;;0.63;0.30;;;2.90;99.90;;;;;;4977278;28;20498;-71
2023/03/11 01:06:54;;;;;;;0.20;0.20;;;2.90;99.90;;;;;;4990687;28;20042;-72
2023/03/11 01:09:20;;;;;;;1.02;0.73;;;2.80;99.90;;;;;;4981791;28;20039;-72
2023/03/11 01:11:46;;;;;;;2.67;0.82;;;2.80;99.90;;;;;;4989321;28;20038;-72
2023/03/11 01:14:12;;;;;;;0.30;0.30;;;2.90;99.90;;;;;;4979370;28;20038;-72
2023/03/11 01:16:38;;;;;;;0.10;0.10;;;2.90;99.90;;;;;;4987264;28;20038;-72
2023/03/11 01:19:04;;;;;;;1.02;0.40;;;2.90;99.90;;;;;;4980552;28;20042;-72
2023/03/11 01:21:30;;;;;;;5.28;0.45;;;2.90;99.90;;;;;;4987000;28;20022;-72
2023/03/11 01:23:56;;;;;;;0.50;0.38;;;2.80;99.90;;;;;;4980312;28;20394;-71
2023/03/11 01:26:21;;;;;;;0.57;0.57;;;2.80;99.90;;;;;;4985852;28;20045;-72
2023/03/11 01:28:47;;;;;;;2.00;0.43;;;2.80;99.90;;;;;;4979294;28;20041;-72
2023/03/11 01:31:13;;;;;;;0.25;0.22;;;2.80;99.90;;;;;;4984853;28;20107;-72
2023/03/11 01:33:39;;;;;;;0.22;0.22;;;2.70;99.90;;;;;;4981944;28;20038;-72
2023/03/11 01:36:05;;;;;;;9.75;0.55;;;2.80;99.90;;;;;;4983675;28;20032;-72
2023/03/11 01:38:31;;;;;;;3.13;0.82;;;2.70;99.90;;;;;;4996812;28;20030;-71
2023/03/11 01:40:57;;;;;;;4.15;0.43;;;2.80;99.90;;;;;;4984622;28;20101;-72
2023/03/11 01:43:44;;;;;;;0.47;0.43;;;2.70;99.90;;;;;;4981368;28;20076;-72
2023/03/11 01:46:32;;;;;;;3.63;0.70;;;2.70;99.90;;;;;;4984682;28;20126;-72
2023/03/11 01:49:01;;;;;;;0.43;0.40;;;2.70;99.90;;;;;;4979287;28;20061;-72
2023/03/11 01:51:40;;;;;;;4.07;0.75;;;2.70;99.90;;;;;;4985822;28;20038;-72
2023/03/11 01:54:13;;;;;;;8.30;0.77;;;2.70;99.90;;;;;;4998083;23;20042;-73
2023/03/11 01:56:40;;;;;;;3.10;0.55;;;2.70;99.90;;;;;;5007656;28;20065;-73
2023/03/11 01:59:10;;;;;;;4.88;0.90;;;2.60;99.90;;;;;;5005298;28;20018;-73
2023/03/11 02:02:05;;;;;;;1.00;0.52;;;2.70;99.90;;;;;;5007069;28;20026;-73
2023/03/11 02:04:33;;;;;;;1.55;0.55;;;2.60;99.90;;;;;;4995471;28;20109;-73
2023/03/11 02:07:00;;;;;;;1.30;1.20;;;2.60;99.90;;;;;;4983976;28;20707;-74
2023/03/11 02:09:26;;;;;;;0.93;0.52;;;2.60;99.90;;;;;;4978386;28;20169;-74
2023/03/11 02:11:52;;;;;;;0.50;0.25;;;2.60;99.90;;;;;;4992347;28;20102;-74
2023/03/11 02:14:19;;;;;;;2.28;0.57;;;2.60;99.90;;;;;;4985667;28;20030;-74
2023/03/11 02:16:45;;;;;;;0.20;0.20;;;2.70;99.90;;;;;;4991058;28;20022;-74
2023/03/11 02:19:40;;;;;;;2.38;0.32;;;2.70;99.90;;;;;;5001848;28;20069;-74
2023/03/11 02:22:08;;;;;;;0.40;0.28;;;2.80;99.90;;;;;;4968255;28;20038;-74
2023/03/11 02:25:03;;;;;;;0.32;0.22;;;2.80;99.90;;;;;;4980507;28;20027;-74
2023/03/11 02:27:32;;;;;;;4.18;0.57;;;2.80;99.90;;;;;;4975363;28;20073;-74
2023/03/11 02:29:59;;;;;;;11.23;1.85;;;2.70;99.90;;;;;;5000665;28;20697;-74
2023/03/11 02:32:26;;;;;;;0.93;0.43;;;2.60;99.90;;;;;;4990658;28;20026;-73
2023/03/11 02:34:51;;;;;;;0.43;0.35;;;2.60;99.90;;;;;;4991629;28;20089;-74
2023/03/11 02:37:18;;;;;;;0.45;0.35;;;2.70;99.90;;;;;;4991952;28;20485;-74
2023/03/11 02:39:50;;;;;;;4.90;0.57;;;2.60;99.90;;;;;;4991288;28;20026;-74
2023/03/11 02:42:18;;;;;;;0.63;0.55;;;2.60;99.90;;;;;;4990085;28;20034;-74
2023/03/11 02:44:53;;;;;;;0.60;0.40;;;2.60;99.90;;;;;;4990529;28;20470;-75
2023/03/11 02:47:19;;;;;;;2.83;0.68;;;2.60;99.90;;;;;;4973527;28;20057;-73
2023/03/11 02:49:44;;;;;;;5.32;1.50;;;2.50;99.90;;;;;;4991452;28;20031;-74
2023/03/11 02:52:11;;;;;;;0.32;0.28;;;2.60;99.90;;;;;;4991280;28;20034;-74
2023/03/11 02:54:37;;;;;;;0.15;0.15;;;2.60;99.90;;;;;;4991211;28;20030;-74
2023/03/11 02:57:03;;;;;;;6.55;0.43;;;2.60;99.90;;;;;;4991741;28;20030;-74
2023/03/11 02:59:29;;;;;;;1.15;0.63;;;2.50;99.90;;;;;;4990875;28;20101;-74
2023/03/11 03:01:54;;;;;;;1.05;0.77;;;2.50;99.90;;;;;;4991654;28;20030;-75
2023/03/11 03:04:20;;;;;;;0.38;0.38;;;2.40;99.90;;;;;;4990952;28;20142;-74
2023/03/11 03:06:46;;;;;;;0.63;0.30;;;2.40;99.90;;;;;;4991759;28;20536;-74
2023/03/11 03:09:12;;;;;;;1.15;0.40;;;2.30;99.90;;;;;;4990713;28;20038;-74
2023/03/11 03:11:37;;;;;;;0.70;0.60;;;2.30;99.90;;;;;;5006396;28;20030;-74
2023/03/11 03:14:03;;;;;;;0.20;0.20;;;2.20;99.90;;;;;;4990882;28;20029;-75
2023/03/11 03:16:29;;;;;;;0.80;0.38;;;2.20;99.90;;;;;;4991584;28;20053;-75
2023/03/11 03:18:54;;;;;;;0.17;0.17;;;2.30;99.90;;;;;;4990786;28;20497;-74
2023/03/11 03:21:20;;;;;;;3.83;1.45;;;2.20;99.90;;;;;;4991245;28;20061;-74
2023/03/11 03:23:46;;;;;;;1.27;0.55;;;2.20;99.90;;;;;;4990875;28;20466;-75
2023/03/11 03:26:13;;;;;;;0.93;0.40;;;2.20;99.90;;;;;;4991197;28;20069;-75
2023/03/11 03:28:38;;;;;;;2.90;0.40;;;2.20;99.90;;;;;;4990439;28;20030;-75
2023/03/11 03:31:07;;;;;;;5.22;0.63;;;2.10;99.90;;;;;;4991108;28;20026;-75
2023/03/11 03:33:33;;;;;;;7.97;2.97;;;2.10;99.90;;;;;;4990736;28;20019;-75
2023/03/11 03:35:59;;;;;;;0.50;0.50;;;2.00;99.90;;;;;;4990944;28;20026;-75
2023/03/11 03:38:24;;;;;;;1.10;0.32;;;2.00;99.90;;;;;;4985797;28;20031;-75
2023/03/11 03:40:50;;;;;;;2.10;1.25;;;2.00;99.90;;;;;;4989863;28;20394;-75
2023/03/11 03:43:16;;;;;;;3.45;0.38;;;2.00;99.90;;;;;;4985554;28;20030;-75
2023/03/11 03:45:42;;;;;;;0.77;0.77;;;2.00;99.90;;;;;;4991313;28;20034;-74
2023/03/11 03:48:08;;;;;;;0.90;0.70;;;2.00;99.90;;;;;;4985428;28;20392;-74
2023/03/11 03:50:33;;;;;;;3.42;0.40;;;2.00;99.90;;;;;;4990812;28;20053;-75
2023/03/11 03:52:59;;;;;;;3.80;0.60;;;2.00;99.90;;;;;;4988972;28;20387;-75
2023/03/11 03:55:25;;;;;;;0.35;0.30;;;2.00;99.90;;;;;;4995188;28;20022;-75
2023/03/11 03:57:51;;;;;;;0.57;0.20;;;2.00;99.90;;;;;;4994698;28;20034;-75
2023/03/11 04:00:17;;;;;;;0.40;0.30;;;2.00;99.90;;;;;;4986410;28;20422;-75
2023/03/11 04:02:43;;;;;;;6.78;1.95;;;2.00;99.90;;;;;;4990532;28;20038;-75
2023/03/11 04:05:09;;;;;;;0.65;0.35;;;2.00;99.90;;;;;;4994493;28;20497;-75
2023/03/11 04:07:35;;;;;;;30.85;0.82;;;2.00;99.90;;;;;;4994452;28;20101;-74
2023/03/11 04:10:02;;;;;;;0.20;0.20;;;2.00;99.90;;;;;;4993100;28;20105;-75
2023/03/11 04:12:28;;;;;;;0.65;0.40;;;2.00;99.90;;;;;;4977207;28;20167;-75
2023/03/11 04:14:54;;;;;;;0.22;0.22;;;2.00;99.90;;;;;;4980943;28;20460;-74
2023/03/11 04:17:20;;;;;;;4.82;0.57;;;2.00;99.90;;;;;;4994558;28;20105;-74
2023/03/11 04:19:45;;;;;;;0.17;0.17;;;2.00;99.90;;;;;;4993785;28;20034;-74
2023/03/11 04:22:11;;;;;;;1.17;0.95;;;2.00;99.90;;;;;;4994537;28;20981;-74
2023/03/11 04:24:37;;;;;;;0.75;0.40;;;2.10;99.90;;;;;;4994068;28;20509;-74
2023/03/11 04:27:02;;;;;;;11.38;0.82;;;2.00;99.90;;;;;;4994477;28;20077;-74
2023/03/11 04:29:28;;;;;;;0.30;0.30;;;2.00;99.90;;;;;;4994015;28;20386;-74
2023/03/11 04:31:54;;;;;;;3.00;1.85;;;2.00;99.90;;;;;;4993072;28;20422;-74
2023/03/11 04:34:20;;;;;;;1.17;0.57;;;1.90;99.90;;;;;;5009232;28;20045;-74
2023/03/11 04:36:46;;;;;;;0.17;0.15;;;1.90;99.90;;;;;;4986589;28;20356;-75
2023/03/11 04:39:11;;;;;;;0.45;0.45;;;1.90;99.90;;;;;;4991395;28;20048;-74
2023/03/11 04:41:37;;;;;;;1.75;1.02;;;1.90;99.90;;;;;;4994106;28;20026;-74
2023/03/11 04:44:03;;;;;;;0.30;0.30;;;1.90;99.90;;;;;;4993552;28;20067;-74
2023/03/11 04:46:28;;;;;;;0.45;0.40;;;1.90;99.90;;;;;;4994082;28;20054;-75
2023/03/11 04:48:54;;;;;;;1.50;0.70;;;1.90;99.90;;;;;;4992945;28;20489;-75
2023/03/11 04:51:20;;;;;;;3.50;0.43;;;1.90;99.90;;;;;;4992117;28;20026;-74
2023/03/11 04:53:46;;;;;;;3.10;0.73;;;1.80;99.90;;;;;;4992232;28;20053;-73
2023/03/11 04:56:11;;;;;;;0.90;0.47;;;1.90;99.90;;;;;;4993939;28;20105;-74
2023/03/11 04:58:37;;;;;;;1.65;0.60;;;2.00;99.90;;;;;;4993549;28;20023;-74
2023/03/11 05:01:03;;;;;;;3.10;0.55;;;1.90;99.90;;;;;;4993495;28;20475;-74
2023/03/11 05:03:29;;;;;;;1.40;1.02;;;1.90;99.90;;;;;;4993391;28;20537;-73
2023/03/11 05:05:59;;;;;;;0.75;0.52;;;1.90;99.90;;;;;;4989038;28;20062;-74
2023/03/11 05:08:25;;;;;;;2.55;1.02;;;1.80;99.90;;;;;;4993427;28;20056;-74
2023/03/11 05:10:51;;;;;;;8.45;0.68;;;2.00;99.90;;;;;;4993253;28;20633;-74
2023/03/11 05:13:19;;;;;;;8.00;1.13;;;1.90;99.90;;;;;;4993370;28;20041;-74
2023/03/11 05:15:46;;;;;;;0.47;0.30;;;1.90;99.90;;;;;;4981004;28;20027;-73
2023/03/11 05:18:13;;;;;;;0.03;0.03;;;1.80;99.90;;;;;;4974251;28;20033;-74
2023/03/11 05:20:38;;;;;;;0.30;0.10;;;1.80;99.90;;;;;;4973472;28;20480;-75
2023/03/11 05:23:04;;;;;;;0.38;0.20;;;1.90;99.90;;;;;;4972804;28;20027;-74
2023/03/11 05:25:30;;;;;;;6.82;1.33;;;1.90;99.90;;;;;;4973750;28;20390;-74
2023/03/11 05:27:56;;;;;;;14.73;0.60;;;1.80;99.90;;;;;;4972863;28;20034;-74
2023/03/11 05:30:22;;;;;;;0.13;0.13;;;1.80;99.90;;;;;;4973446;28;20041;-73
2023/03/11 05:32:48;;;;;;;0.65;0.50;;;1.90;99.90;;;;;;4973766;28;20035;-74
2023/03/11 05:35:14;;;;;;;3.38;0.52;;;1.90;99.90;;;;;;4972263;28;20078;-74
2023/03/11 05:37:40;;;;;;;1.67;1.50;;;1.90;99.90;;;;;;4973729;28;20023;-74
2023/03/11 05:40:09;;;;;;;0.20;0.20;;;2.00;99.90;;;;;;4973244;28;20045;-74
2023/03/11 05:42:35;;;;;;;0.20;0.20;;;2.00;99.90;;;;;;4972235;28;20038;-74
2023/03/11 05:45:01;;;;;;;3.40;1.33;;;1.90;99.90;;;;;;4973440;28;20038;-74
2023/03/11 05:47:27;;;;;;;1.45;0.40;;;2.00;99.90;;;;;;4973312;28;20472;-74
2023/03/11 05:49:53;;;;;;;1.20;0.45;;;2.00;99.90;;;;;;4973138;28;20118;-73
2023/03/11 05:52:19;;;;;;;0.98;0.63;;;2.10;99.90;;;;;;4973336;28;20026;-74
2023/03/11 05:54:48;;;;;;;0.75;0.47;;;2.10;99.90;;;;;;4971900;28;20034;-73
2023/03/11 05:57:14;;;;;;;1.83;0.32;;;2.10;99.90;;;;;;4973182;28;20033;-74
2023/03/11 05:59:40;;;;;;;5.88;1.30;;;2.00;99.90;;;;;;4972977;28;20113;-73
2023/03/11 06:02:06;;;;;;;0.28;0.20;;;2.10;99.90;;;;;;4973192;28;20470;-74
2023/03/11 06:04:31;;;;;;;0.82;0.68;;;2.00;99.90;;;;;;4972910;28;20054;-75
2023/03/11 06:06:57;;;;;;;0.28;0.20;;;2.00;99.90;;;;;;4972943;28;20057;-74
2023/03/11 06:09:23;;;;;;;5.40;0.63;;;1.90;99.90;;;;;;4972969;28;20039;-75
2023/03/11 06:11:49;;;;;;;1.88;1.45;;;1.90;99.90;;;;;;4987184;28;20038;-74
2023/03/11 06:14:14;;;;;;;0.50;0.43;;;1.90;99.90;;;;;;4991562;28;20030;-74
2023/03/11 06:16:41;;;;;;;0.40;0.25;;;1.80;99.90;;;;;;4971470;28;20039;-74
2023/03/11 06:19:07;;;;;;;0.65;0.43;;;1.70;99.90;;;;;;4972728;28;20035;-73
2023/03/11 06:21:33;;;;;;;8.38;1.40;;;1.80;99.90;;;;;;4972698;28;20039;-75
2023/03/11 06:23:59;;;;;;;0.80;0.55;;;1.70;99.90;;;;;;4972617;28;20031;-74
2023/03/11 06:26:24;;;;;;;2.47;1.05;;;1.80;99.90;;;;;;4977728;28;20061;-74
2023/03/11 06:28:51;;;;;;;8.75;1.10;;;1.80;99.90;;;;;;4990719;28;20108;-75
2023/03/11 06:31:24;;;;;;;0.70;0.52;;;1.80;99.90;;;;;;4991375;28;20026;-74
2023/03/11 06:33:50;;;;;;;7.95;1.13;;;1.90;99.90;;;;;;4991714;28;20113;-75
2023/03/11 06:36:18;;;;;;;0.68;0.57;;;1.80;99.90;;;;;;4991241;28;20049;-74
2023/03/11 06:38:48;;;;;;;9.35;2.75;;;1.80;99.90;;;;;;4990098;28;20730;-74
2023/03/11 06:41:15;;;;;;;3.45;1.10;;;1.80;99.90;;;;;;4985450;28;20022;-74
2023/03/11 06:43:41;;;;;;;3.15;0.57;;;1.80;99.90;;;;;;4988946;28;20026;-71
2023/03/11 06:46:14;;;;;;;3.83;1.10;;;1.80;99.90;;;;;;4988926;28;20026;-69
2023/03/11 06:48:40;;;;;;;1.10;0.90;;;1.80;99.90;;;;;;4991117;28;20100;-69
2023/03/11 06:51:05;;;;;;;0.57;0.55;;;1.80;99.90;;;;;;4990009;28;20038;-70
2023/03/11 06:53:32;;;;;;;1.27;0.73;;;1.80;99.90;;;;;;4990115;28;20027;-70
2023/03/11 06:56:05;;;;;;;7.00;1.20;;;1.90;99.90;;;;;;5006043;28;20441;-75
2023/03/11 06:58:33;;;;;;;1.05;0.63;;;2.00;99.90;;;;;;4990706;28;20050;-72
2023/03/11 07:01:22;;;;;;;3.08;1.30;;;2.00;99.90;;;;;;4984062;28;20113;-70
2023/03/11 07:03:50;;;;;;;1.25;0.68;;;2.00;99.90;;;;;;4986511;28;20041;-76
2023/03/11 07:06:20;;;;;;;0.50;0.25;;;2.10;99.90;;;;;;4988084;28;20034;-76
2023/03/11 07:08:48;;;;;;;0.77;0.73;;;2.20;99.90;;;;;;4990928;28;20116;-72
2023/03/11 07:11:25;;;;;;;2.10;0.52;;;2.30;99.90;;;;;;4986798;28;20037;-74
2023/03/11 07:13:53;;;;;;;2.08;1.48;;;2.20;99.90;;;;;;4980034;28;20372;-79
2023/03/11 07:16:22;;;;;;;6.95;0.52;;;2.30;99.90;;;;;;4995827;28;20026;-78
2023/03/11 07:18:50;;;;;;;2.90;1.40;;;2.30;99.90;;;;;;4978160;28;20038;-77
2023/03/11 07:21:21;;;;;;;9.05;0.70;;;2.30;99.90;;;;;;4980873;28;20047;-73
2023/03/11 07:23:53;;;;;;;0.45;0.35;;;2.30;99.90;;;;;;4973532;28;20030;-75
2023/03/11 07:26:19;;;;;;;;;;;2.40;99.90;;;;;;4981891;28;20069;-71
2023/03/11 07:28:45;;;;;;;10.77;0.65;;;2.30;99.90;;;;;;4988045;28;20003;-72
2023/03/11 07:31:17;;;;;;;6.50;0.68;;;2.30;99.90;;;;;;4989811;28;20034;-73
2023/03/11 07:33:44;;;;;;;2.17;1.40;;;2.40;99.90;;;;;;4989928;28;20034;-73
2023/03/11 07:36:17;;;;;;;1.63;0.40;;;2.30;99.90;;;;;;4990865;28;20066;-73
2023/03/11 07:38:43;;;;;;;0.95;0.40;;;2.40;99.90;;;;;;4991413;28;20027;-72
2023/03/11 07:41:12;;;;;;;4.00;0.88;;;2.50;99.90;;;;;;4989230;28;20036;-74
2023/03/11 07:43:39;;;;;;;0.22;0.20;;;2.50;99.90;;;;;;4990988;28;20042;-74
2023/03/11 07:46:17;;;;;;;1.55;0.65;;;2.50;99.90;;;;;;4990886;28;20045;-72
2023/03/11 07:48:44;;;;;;;1.92;0.90;;;2.50;99.90;;;;;;4989397;28;20042;-73
2023/03/11 07:51:14;;;;;;;0.10;0.10;;;2.50;99.90;;;;;;4983596;28;20390;-74
2023/03/11 07:53:40;;;;;;;3.20;0.63;;;2.60;99.90;;;;;;4993164;23;20101;-74
2023/03/11 07:56:08;;;;;;;2.15;0.65;;;2.70;99.90;;;;;;4985072;28;20026;-76
2023/03/11 07:58:34;;;;;;;1.90;0.70;;;2.70;99.90;;;;;;4989283;28;20042;-76
2023/03/11 08:01:17;;;;;;;1.38;0.73;;;2.70;99.90;;;;;;4969869;28;20425;-80
2023/03/11 08:03:45;;;;;;;0.65;0.43;;;2.80;99.90;;;;;;4981752;28;20045;-79
2023/03/11 08:06:24;;;;;;;16.85;2.53;;;2.80;99.90;;;;;;4972505;28;20077;-79
2023/03/11 08:08:50;;;;;;;7.93;1.23;;;2.90;99.90;;;;;;4971428;28;20483;-78
2023/03/11 08:11:19;;;;;;;4.50;0.60;;;3.00;99.90;;;;;;4985385;28;20487;-74
2023/03/11 08:13:46;;;;;;;1.38;0.75;;;2.90;99.90;;;;;;4969829;28;20033;-72
2023/03/11 08:16:14;;;;;;;17.40;1.35;;;2.90;99.90;;;;;;4985819;28;20236;-73
2023/03/11 08:18:41;;;;;;;3.05;1.27;;;3.00;99.90;;;;;;4970780;28;20019;-74
2023/03/11 08:21:25;;;;;;;1.92;0.65;;;3.20;99.90;;;;;;4971025;28;20054;-73
2023/03/11 08:23:52;;;;;;;2.53;1.20;;;3.30;99.90;;;;;;4979741;28;20479;-70
2023/03/11 08:26:23;;;;;;;8.10;1.55;;;3.30;99.90;;;;;;4978225;28;20042;-75
2023/03/11 08:28:49;;;;;;;1.17;0.57;;;3.40;99.90;;;;;;4965552;28;20191;-73
2023/03/11 08:31:26;;;;;;;3.45;0.85;;;3.40;99.90;;;;;;4985668;28;20075;-73
2023/03/11 08:33:57;;;;;;;6.15;0.80;;;3.40;99.90;;;;;;4964824;28;20027;-73
2023/03/11 08:36:22;;;;;;;8.90;1.83;;;3.60;99.90;;;;;;4964065;28;20034;-72
2023/03/11 08:38:49;;;;;;;0.75;0.38;;;3.70;99.90;;;;;;4968408;28;20053;-72
2023/03/11 08:41:15;;;;;;;1.75;1.13;;;3.80;99.90;;;;;;4974191;28;20479;-74
2023/03/11 08:43:41;;;;;;;0.35;0.35;;;3.90;99.90;;;;;;4969793;28;20031;-76
2023/03/11 08:46:08;;;;;;;2.63;0.50;;;3.90;99.90;;;;;;4972744;28;20030;-75
2023/03/11 08:48:36;;;;;;;0.82;0.70;;;4.00;99.90;;;;;;4969470;28;20066;-76
2023/03/11 08:51:08;;;;;;;2.05;0.43;;;4.10;99.90;;;;;;4971820;28;20558;-73
2023/03/11 08:53:34;;;;;;;2.20;0.75;;;4.10;99.90;;;;;;4970816;28;20039;-74
2023/03/11 08:55:59;;;;;;;3.28;0.68;;;4.20;99.90;;;;;;4971863;28;20026;-72
2023/03/11 08:58:25;;;;;;;4.53;0.57;;;4.00;99.90;;;;;;4986406;28;20035;-70
2023/03/11 09:00:51;;;;;;;10.13;1.95;;;4.10;99.90;;;;;;4970363;28;20505;-70
2023/03/11 09:03:17;;;;;;;1.95;0.55;;;4.20;99.90;;;;;;4954873;28;20034;-72
2023/03/11 09:05:42;;;;;;;0.38;0.38;;;4.30;99.90;;;;;;4969523;28;20432;-72
2023/03/11 09:08:08;;;;;;;2.80;1.45;;;4.50;99.90;;;;;;4973247;28;20049;-72
2023/03/11 09:10:34;;;;;;;0.68;0.68;;;4.60;99.90;;;;;;4967880;28;20034;-72
2023/03/11 09:12:59;;;;;;;2.53;0.50;;;4.60;99.90;;;;;;4955348;28;20037;-72
2023/03/11 09:15:25;;;;;;;0.63;0.60;;;4.60;99.90;;;;;;4964298;28;20126;-72
2023/03/11 09:17:51;;;;;;;0.63;0.30;;;4.70;99.60;;;;;;4988037;28;20022;-72
2023/03/11 09:20:17;;;;;;;0.38;0.28;;;4.80;98.50;;;;;;4967080;28;20026;-72
2023/03/11 09:22:43;;;;;;;0.77;0.57;;;4.90;98.30;;;;;;4973402;28;20042;-72
2023/03/11 09:25:12;;;;;;;0.65;0.63;;;4.90;97.30;;;;;;4967194;28;20030;-73
2023/03/11 09:27:37;;;;;;;1.17;0.40;;;4.80;97.80;;;;;;4987977;28;20037;-73
2023/03/11 09:30:04;;;;;;;3.05;1.10;;;4.80;98.70;;;;;;4967157;28;20031;-72
2023/03/11 09:32:30;;;;;;;3.92;0.55;;;4.80;98.40;;;;;;4973635;28;20035;-72
2023/03/11 09:34:56;;;;;;;0.30;0.30;;;4.90;98.30;;;;;;4967470;28;20027;-72
2023/03/11 09:37:22;;;;;;;5.68;0.40;;;5.10;97.90;;;;;;4973051;28;20027;-72
2023/03/11 09:39:48;;;;;;;2.00;0.52;;;5.30;97.70;;;;;;4967132;28;20476;-73
2023/03/11 09:42:34;;;;;;;1.35;0.60;;;5.50;96.70;;;;;;4973166;28;20037;-73
2023/03/11 09:45:25;;;;;;;0.88;0.57;;;5.40;96.80;;;;;;4967616;28;20046;-72
2023/03/11 09:48:10;;;;;;;1.42;0.98;;;5.10;96.60;;;;;;4974560;28;20054;-72
2023/03/11 09:51:02;;;;;;;0.10;0.10;;;5.50;96.10;;;;;;4972061;28;20053;-72
2023/03/11 09:53:45;;;;;;;0.65;0.28;;;5.30;95.60;;;;;;4952741;28;20035;-71
2023/03/11 09:56:17;;;;;;;9.00;1.25;;;5.70;95.70;;;;;;4972590;28;20150;-71
2023/03/11 09:58:54;;;;;;;5.32;1.40;;;5.80;95.20;;;;;;4982936;28;20031;-72
2023/03/11 10:01:42;;;;;;;3.55;1.40;;;6.10;94.80;;;;;;4964199;28;20058;-72
2023/03/11 10:04:17;;;;;;;2.08;0.88;;;6.20;94.90;;;;;;4981632;28;20391;-72
2023/03/11 10:06:46;;;;;;;3.72;1.00;;;6.20;94.70;;;;;;4987693;28;20022;-72
2023/03/11 10:09:27;;;;;;;1.88;0.45;;;6.00;93.90;;;;;;4966084;28;20049;-72
2023/03/11 10:12:04;;;;;;;0.93;0.43;;;6.10;93.30;;;;;;4969717;28;20125;-71
2023/03/11 10:14:38;;;;;;;0.10;0.10;;;5.80;93.30;;;;;;4965266;28;20305;-71
2023/03/11 10:17:35;;;;;;;1.33;0.70;;;5.90;93.60;;;;;;4972605;28;20098;-71
2023/03/11 10:20:26;;;;;;;0.75;0.40;;;6.30;93.50;;;;;;4975481;28;20034;-71
2023/03/11 10:23:25;;;;;;;0.27;0.20;;;6.70;92.80;;;;;;4986551;28;20069;-71
2023/03/11 10:26:19;;;;;;;0.45;0.35;;;7.00;91.50;;;;;;4968855;28;20046;-71
2023/03/11 10:29:05;;;;;;;3.08;0.60;;;7.20;91.40;;;;;;4972645;28;20031;-71
2023/03/11 10:31:49;;;;;;;3.85;0.80;;;7.40;90.80;;;;;;4972180;28;20035;-70
2023/03/11 10:34:40;;;;;;;4.57;1.10;;;6.10;91.10;;;;;;4980557;28;20114;-71
2023/03/11 10:37:15;;;;;;;;;;;6.70;91.10;;;;;;4985239;28;20034;-71
2023/03/11 10:39:41;;;;;;;6.20;0.60;;;6.60;91.40;;;;;;4965647;28;19957;-71
2023/03/11 10:42:16;;;;;;;1.13;0.60;;;6.80;90.70;;;;;;4986878;28;20050;-71
2023/03/11 10:44:42;;;;;;;1.63;0.50;;;7.30;90.30;;;;;;4980121;28;20023;-71
2023/03/11 10:47:28;;;;;;;1.88;0.70;;;7.30;90.60;;;;;;4971783;28;20073;-71
2023/03/11 10:49:54;;;;;;;3.25;0.90;;;7.70;90.00;;;;;;4965481;28;20399;-71
2023/03/11 10:52:20;;;;;;;0.55;0.38;;;7.80;88.70;;;;;;4971954;28;20038;-70
2023/03/11 10:54:57;;;;;;;0.30;0.20;;;8.20;87.50;;;;;;4965724;28;20033;-71
2023/03/11 10:57:34;;;;;;;0.90;0.43;;;8.20;87.20;;;;;;4972000;28;20027;-79
2023/03/11 11:00:15;;;;;;;1.65;0.60;;;8.20;86.20;;;;;;4979307;28;20042;-71
2023/03/11 11:02:52;;;;;;;0.32;0.32;;;7.70;86.10;;;;;;4984578;28;20041;-71
2023/03/11 11:05:17;;;;;;;0.03;0.03;;;7.40;88.30;;;;;;4966046;28;20161;-71
2023/03/11 11:07:52;;;;;;;0.80;0.38;;;8.30;87.00;;;;;;4970812;28;20482;-70
2023/03/11 11:10:24;;;;;;;1.00;0.35;;;8.70;82.40;;;;;;4971946;28;20030;-70
2023/03/11 11:13:07;;;;;;;3.22;1.20;;;8.50;82.20;;;;;;4973972;28;20512;-70
2023/03/11 11:15:38;;;;;;;2.72;0.70;;;7.60;83.10;;;;;;4971635;28;20042;-69
2023/03/11 11:18:19;;;;;;;5.82;1.20;;;7.40;83.30;;;;;;4970527;28;20037;-69
2023/03/11 11:21:30;;;;;;;0.35;0.30;;;7.40;83.90;;;;;;4981749;28;20035;-68
2023/03/11 11:24:29;;;;;;;1.48;0.80;;;7.30;84.50;;;;;;4955293;28;20404;-69
2023/03/11 11:27:15;;;;;;;4.53;0.50;;;7.40;83.40;;;;;;4968942;28;20109;-68
2023/03/11 11:29:42;;;;;;;1.48;0.40;;;8.00;80.80;;;;;;4979067;28;20495;-68
2023/03/11 11:32:22;;;;;;;1.15;0.80;;;8.30;80.90;;;;;;4986433;28;20054;-68
2023/03/11 11:35:05;;;;;;;4.25;0.55;;;8.40;84.20;;;;;;4965337;28;20054;-68
2023/03/11 11:37:35;;;;;;;0.43;0.25;;;8.00;84.00;;;;;;4967918;28;20042;-68
2023/03/11 11:40:13;;;;;;;5.15;0.55;;;8.60;82.20;;;;;;4963530;28;20442;-68
2023/03/11 11:42:57;;;;;;;2.00;1.25;;;8.70;80.20;;;;;;4965924;28;20034;-69
2023/03/11 11:46:05;;;;;;;2.03;0.60;;;9.90;77.90;;;;;;4968879;28;20030;-69
2023/03/11 11:48:43;;;;;;;0.20;0.20;;;8.60;79.00;;;;;;4959971;28;20075;-69
2023/03/11 11:51:39;;;;;;;1.17;0.50;;;8.80;78.20;;;;;;4981538;28;20635;-69
2023/03/11 11:54:37;;;;;;;0.90;0.40;;;8.30;77.40;;;;;;4968249;28;20050;-69
2023/03/11 11:57:13;;;;;;;4.82;0.50;;;7.90;77.80;;;;;;4964964;28;20061;-69
2023/03/11 11:59:39;;;;;;;4.18;0.47;;;7.90;78.90;;;;;;4969742;28;20126;-69
2023/03/11 12:02:39;;;;;;;1.15;0.52;;;9.20;77.50;;;;;;4970978;28;20022;-69
2023/03/11 12:05:16;;;;;;;3.63;0.32;;;9.90;76.20;;;;;;4970911;28;20078;-68
2023/03/11 12:08:17;;;;;;;3.50;0.50;;;10.00;75.80;;;;;;4983643;28;20027;-69
2023/03/11 12:10:59;;;;;;;2.72;0.63;;;12.10;72.50;;;;;;4973615;28;20047;-69
2023/03/11 12:13:46;;;;;;;0.50;0.40;;;11.50;69.80;;;;;;4987192;28;20399;-70
2023/03/11 12:17:00;;;;;;;0.98;0.50;;;11.30;67.90;;;;;;4969543;28;20046;-70
2023/03/11 12:19:35;;;;;;;2.03;0.85;;;11.80;71.80;;;;;;4952734;28;20046;-71
2023/03/11 12:22:35;;;;;;;4.75;0.70;;;11.50;68.50;;;;;;4972523;28;20038;-71
2023/03/11 12:25:22;;;;;;;1.67;0.38;;;15.60;63.10;;;;;;4972113;28;20042;-71
2023/03/11 12:27:57;;;;;;;0.80;0.32;;;14.70;61.60;;;;;;4974958;28;20110;-71
2023/03/11 12:30:30;;;;;;;2.67;0.77;;;16.90;58.40;;;;;;4971993;28;20038;-72
2023/03/11 12:33:02;;;;;;;0.82;0.60;;;14.60;56.50;;;;;;4989342;28;20507;-69
2023/03/11 12:35:34;;;;;;;1.42;0.52;;;14.70;59.30;;;;;;4986665;28;20031;-74
2023/03/11 12:38:12;;;;;;;1.05;0.43;;;15.80;56.90;;;;;;4987144;28;20019;-68
2023/03/11 12:40:44;;;;;;;0.85;0.40;;;15.10;55.10;;;;;;4972141;28;20035;-71
2023/03/11 12:43:47;;;;;;;0.75;0.28;;;13.50;59.30;;;;;;4974219;28;20041;-69
2023/03/11 12:46:18;;;;;;;1.73;0.60;;;12.60;61.60;;;;;;4971853;28;20030;-68
2023/03/11 12:49:08;;;;;;;2.70;1.40;;;13.60;60.50;;;;;;4974043;28;20035;-71
2023/03/11 12:51:36;;;;;;;1.27;0.40;;;14.30;58.10;;;;;;4957747;28;20499;-66
2023/03/11 12:54:30;;;;;;;0.55;0.50;;;14.60;54.30;;;;;;4974107;28;20125;-68
2023/03/11 12:57:01;;;;;;;0.88;0.32;;;15.20;54.30;;;;;;4971877;28;20137;-70
2023/03/11 13:00:17;;;;;;;4.10;0.73;;;16.70;52.80;;;;;;4973871;28;20062;-69
2023/03/11 13:03:00;;;;;;;0.98;0.47;;;17.40;51.30;;;;;;4969482;28;20031;-69
2023/03/11 13:05:56;;;;;;;0.30;0.20;;;16.60;51.90;;;;;;4986088;28;20039;-71
2023/03/11 13:08:26;;;;;;;0.85;0.40;;;15.80;51.70;;;;;;4966466;28;20026;-71
2023/03/11 13:10:55;;;;;;;8.30;0.95;;;14.00;52.70;;;;;;4992208;28;20426;-72
2023/03/11 13:13:23;;;;;;;1.10;0.70;;;13.10;53.20;;;;;;4979700;28;20038;-73
2023/03/11 13:15:51;;;;;;;1.40;0.93;;;13.50;55.00;;;;;;4972371;28;20114;-71